Richburg, New York
Current Conditions -  °F | °C
As of 5:56 AM on Friday 28 Nov 2014 (Local Time) from KELZ Reporting Station
Light Snow Light Snow  
Wind Chill: 11°   Ceiling: 2600
Heat Index: 19°   Visibility: 4mi
Dew Point: 14°   Wind: 6mph
Humidity: 81%   Direction: 310°NW
Pressure: 30.13"   Gusts: NA
Location:  42.09°N, 78.15°W
Report Text: KELZ 281056Z AUTO 31005KT 4SM -SN SCT019 OVC026 M07/M10 A3013 RMK AO2 SNB29 SLP234 P0000 T10721100
Loading
Personal Weather Stations






























Interactive Weather Map New forecast layout! Learn more

10-Day Weather Forecast

Advertisements
Track Severe Weather on mobile